Time;durP1;ratioP1;P1;durP2;ratioP2;P2;SDS_P1;SDS_P2;PMS_P1;PMS_P2;Temp;Humidity;BMP_temperature;BMP_pressure;BME280_temperature;BME280_humidity;BME280_pressure;Samples;Min_cycle;Max_cycle;Signal;HPM_P1;HPM_P2
2022/11/14 00:00:34;;;;;;;;;;;19.70;62.70;;;;;;5054966;28;20387;-59
2022/11/14 00:03:03;;;;;;;;;;;19.60;62.50;;;;;;5055643;28;19977;-59
2022/11/14 00:05:29;;;;;;;;;;;19.60;62.60;;;;;;5054399;28;20016;-59
2022/11/14 00:07:54;;;;;;;;;;;19.60;62.50;;;;;;5055539;28;20395;-59
2022/11/14 00:10:20;;;;;;;;;;;19.60;62.70;;;;;;5055258;28;20390;-59
2022/11/14 00:12:45;;;;;;;;;;;19.60;62.50;;;;;;5054741;28;19924;-59
2022/11/14 00:15:11;;;;;;;;;;;19.60;62.60;;;;;;5055071;28;20277;-59
2022/11/14 00:17:36;;;;;;;;;;;19.60;62.50;;;;;;5070511;28;20350;-59
2022/11/14 00:20:02;;;;;;;;;;;19.60;62.50;;;;;;5054565;28;19964;-59
2022/11/14 00:22:27;;;;;;;;;;;19.60;62.50;;;;;;5054691;28;20414;-59
2022/11/14 00:24:53;;;;;;;;;;;19.60;62.60;;;;;;5055019;28;20380;-59
2022/11/14 00:27:18;;;;;;;;;;;19.60;62.60;;;;;;5054356;28;19970;-59
2022/11/14 00:29:44;;;;;;;;;;;19.50;62.50;;;;;;5055220;28;19924;-59
2022/11/14 00:32:09;;;;;;;;;;;19.50;62.50;;;;;;5054520;28;19925;-59
2022/11/14 00:34:35;;;;;;;;;;;19.50;62.40;;;;;;5054301;28;19929;-59
2022/11/14 00:37:00;;;;;;;;;;;19.50;62.50;;;;;;5054857;28;20024;-59
2022/11/14 00:39:26;;;;;;;;;;;19.50;62.40;;;;;;5054223;28;19968;-59
2022/11/14 00:41:51;;;;;;;;;;;19.50;62.40;;;;;;5054216;28;19928;-59
2022/11/14 00:44:17;;;;;;;;;;;19.50;62.40;;;;;;5054685;28;19925;-58
2022/11/14 00:46:42;;;;;;;;;;;19.50;62.40;;;;;;5054738;28;20090;-59
2022/11/14 00:49:08;;;;;;;;;;;19.50;62.50;;;;;;5053930;28;20012;-59
2022/11/14 00:51:33;;;;;;;;;;;19.50;62.40;;;;;;5054890;28;19925;-59
2022/11/14 00:53:59;;;;;;;;;;;19.50;62.40;;;;;;5054663;28;19931;-59
2022/11/14 00:56:24;;;;;;;;;;;19.50;62.40;;;;;;5053581;28;20376;-59
2022/11/14 00:58:50;;;;;;;;;;;19.50;62.40;;;;;;5054682;28;19925;-59
2022/11/14 01:01:15;;;;;;;;;;;19.40;62.40;;;;;;5053666;28;19925;-59
2022/11/14 01:03:40;;;;;;;;;;;19.40;62.30;;;;;;5035709;28;20334;-59
2022/11/14 01:06:06;;;;;;;;;;;19.40;62.30;;;;;;5054642;28;20011;-59
2022/11/14 01:08:32;;;;;;;;;;;19.40;62.30;;;;;;5054158;28;20323;-59
2022/11/14 01:10:59;;;;;;;;;;;19.40;62.40;;;;;;5053534;28;20380;-59
2022/11/14 01:13:24;;;;;;;;;;;19.40;62.30;;;;;;5054310;28;19928;-59
2022/11/14 01:15:51;;;;;;;;;;;19.40;62.30;;;;;;5053480;28;19924;-59
2022/11/14 01:18:17;;;;;;;;;;;19.40;62.40;;;;;;5053916;28;20347;-59
2022/11/14 01:20:43;;;;;;;;;;;19.40;62.30;;;;;;5054313;28;19929;-58
2022/11/14 01:23:09;;;;;;;;;;;19.40;62.20;;;;;;5053172;28;19990;-59
2022/11/14 01:25:35;;;;;;;;;;;19.40;62.20;;;;;;5053893;28;19925;-59
2022/11/14 01:28:01;;;;;;;;;;;19.40;62.20;;;;;;5053831;28;20345;-59
2022/11/14 01:30:26;;;;;;;;;;;19.40;62.20;;;;;;5052531;28;19984;-59
2022/11/14 01:32:51;;;;;;;;;;;19.40;62.30;;;;;;5054080;28;19999;-59
2022/11/14 01:35:17;;;;;;;;;;;19.40;62.20;;;;;;5053685;28;19924;-59
2022/11/14 01:37:42;;;;;;;;;;;19.30;62.10;;;;;;5052976;28;19921;-59
2022/11/14 01:40:08;;;;;;;;;;;19.30;62.10;;;;;;5053821;28;19924;-59
2022/11/14 01:42:34;;;;;;;;;;;19.30;62.10;;;;;;5053660;28;19955;-59
2022/11/14 01:44:59;;;;;;;;;;;19.30;62.10;;;;;;5052799;28;20371;-59
2022/11/14 01:47:28;;;;;;;;;;;19.30;62.10;;;;;;5053364;28;19925;-59
2022/11/14 01:49:55;;;;;;;;;;;19.30;62.10;;;;;;5053498;28;20287;-59
2022/11/14 01:52:22;;;;;;;;;;;19.30;62.10;;;;;;5052634;28;20451;-59
2022/11/14 01:54:48;;;;;;;;;;;19.30;62.10;;;;;;5068973;28;19924;-59
2022/11/14 01:57:15;;;;;;;;;;;19.30;62.10;;;;;;5053466;28;19991;-59
2022/11/14 01:59:41;;;;;;;;;;;19.30;62.10;;;;;;5068111;28;19925;-59
2022/11/14 02:02:11;;;;;;;;;;;19.30;62.10;;;;;;5053615;28;19925;-59
2022/11/14 02:04:38;;;;;;;;;;;19.30;62.00;;;;;;5068776;28;20015;-59
2022/11/14 02:07:04;;;;;;;;;;;19.30;62.10;;;;;;5052615;28;19935;-59
2022/11/14 02:09:30;;;;;;;;;;;19.30;62.10;;;;;;5068219;28;19925;-59
2022/11/14 02:11:56;;;;;;;;;;;19.20;62.00;;;;;;5052944;28;19925;-59
2022/11/14 02:14:22;;;;;;;;;;;19.20;61.90;;;;;;5052787;28;19940;-59
2022/11/14 02:16:47;;;;;;;;;;;19.20;62.00;;;;;;5053026;28;19934;-59
2022/11/14 02:19:13;;;;;;;;;;;19.20;61.90;;;;;;5052181;28;19925;-59
2022/11/14 02:21:38;;;;;;;;;;;19.20;61.90;;;;;;5053040;28;19925;-59
2022/11/14 02:24:07;;;;;;;;;;;19.20;61.90;;;;;;5052592;28;19974;-59
2022/11/14 02:26:32;;;;;;;;;;;19.20;61.90;;;;;;5067198;28;19932;-59
2022/11/14 02:28:58;;;;;;;;;;;19.20;61.90;;;;;;5053066;28;19924;-59
2022/11/14 02:31:23;;;;;;;;;;;19.20;61.90;;;;;;5052620;28;19928;-59
2022/11/14 02:33:49;;;;;;;;;;;19.20;61.90;;;;;;5052296;28;19932;-59
2022/11/14 02:36:14;;;;;;;;;;;19.20;61.90;;;;;;5052297;28;20027;-59
2022/11/14 02:38:40;;;;;;;;;;;19.20;61.80;;;;;;5053064;28;19925;-59
2022/11/14 02:41:05;;;;;;;;;;;19.20;61.90;;;;;;5050968;28;19928;-59
2022/11/14 02:43:31;;;;;;;;;;;19.10;61.70;;;;;;5052230;28;19933;-59
2022/11/14 02:45:56;;;;;;;;;;;19.20;61.90;;;;;;5052166;28;19932;-59
2022/11/14 02:48:22;;;;;;;;;;;19.10;61.80;;;;;;5051312;28;19932;-59
2022/11/14 02:50:48;;;;;;;;;;;19.10;61.80;;;;;;5052239;28;19925;-58
2022/11/14 02:53:13;;;;;;;;;;;19.10;61.80;;;;;;5052677;28;19921;-60
2022/11/14 02:55:39;;;;;;;;;;;19.10;61.80;;;;;;5052065;28;19925;-59
2022/11/14 02:58:04;;;;;;;;;;;19.10;61.80;;;;;;5052320;28;20012;-58
2022/11/14 03:00:30;;;;;;;;;;;19.10;61.80;;;;;;5051896;28;19921;-59
2022/11/14 03:02:55;;;;;;;;;;;19.10;61.80;;;;;;5051366;28;19931;-59
2022/11/14 03:05:21;;;;;;;;;;;19.10;61.80;;;;;;5051379;28;19931;-59
2022/11/14 03:07:46;;;;;;;;;;;19.10;61.80;;;;;;5051750;28;19986;-59
2022/11/14 03:10:12;;;;;;;;;;;19.10;61.70;;;;;;5051068;28;19935;-59
2022/11/14 03:12:38;;;;;;;;;;;19.10;61.80;;;;;;5052466;28;19921;-59
2022/11/14 03:15:04;;;;;;;;;;;19.10;61.80;;;;;;5052494;28;20380;-59
2022/11/14 03:17:30;;;;;;;;;;;19.10;61.80;;;;;;5051555;28;19972;-59
2022/11/14 03:19:56;;;;;;;;;;;19.10;61.70;;;;;;5052450;28;19947;-59
2022/11/14 03:22:21;;;;;;;;;;;19.10;61.60;;;;;;5051579;28;19929;-59
2022/11/14 03:24:46;;;;;;;;;;;19.00;61.70;;;;;;5052049;28;19972;-59
2022/11/14 03:27:12;;;;;;;;;;;19.00;61.70;;;;;;5051820;28;19924;-59
2022/11/14 03:29:37;;;;;;;;;;;19.00;61.70;;;;;;5051734;28;20868;-59
2022/11/14 03:32:03;;;;;;;;;;;19.00;61.80;;;;;;5052240;28;20262;-59
2022/11/14 03:34:29;;;;;;;;;;;19.00;61.80;;;;;;5051907;28;20027;-59
2022/11/14 03:36:54;;;;;;;;;;;19.00;61.80;;;;;;5051422;28;19972;-59
2022/11/14 03:39:20;;;;;;;;;;;19.00;61.80;;;;;;5052059;28;20281;-59
2022/11/14 03:41:45;;;;;;;;;;;19.00;61.80;;;;;;5051962;28;19971;-59
2022/11/14 03:44:11;;;;;;;;;;;19.00;61.80;;;;;;5051385;28;19924;-59
2022/11/14 03:46:36;;;;;;;;;;;19.00;61.80;;;;;;5052112;28;19924;-59
2022/11/14 03:49:02;;;;;;;;;;;19.00;61.80;;;;;;5051652;28;20368;-59
2022/11/14 03:51:27;;;;;;;;;;;19.00;61.80;;;;;;5051114;28;19924;-59
2022/11/14 03:53:53;;;;;;;;;;;19.00;61.80;;;;;;5055069;28;19924;-59
2022/11/14 03:56:18;;;;;;;;;;;19.10;61.70;;;;;;5055225;28;19925;-59
2022/11/14 03:58:43;;;;;;;;;;;19.10;61.80;;;;;;5054969;28;19925;-59
2022/11/14 04:01:09;;;;;;;;;;;19.10;61.80;;;;;;5055394;28;19970;-59
2022/11/14 04:03:34;;;;;;;;;;;19.10;61.80;;;;;;5055431;28;19925;-58
2022/11/14 04:06:00;;;;;;;;;;;19.10;61.80;;;;;;5054763;28;20388;-59
2022/11/14 04:08:25;;;;;;;;;;;19.10;61.80;;;;;;5055388;28;19925;-59
2022/11/14 04:10:51;;;;;;;;;;;19.10;61.80;;;;;;5055048;28;19947;-59
2022/11/14 04:13:16;;;;;;;;;;;19.10;61.80;;;;;;5054457;28;19924;-59
2022/11/14 04:15:42;;;;;;;;;;;19.20;61.70;;;;;;5055468;28;19975;-59
2022/11/14 04:18:07;;;;;;;;;;;19.20;61.80;;;;;;5037872;28;19970;-58
2022/11/14 04:20:33;;;;;;;;;;;19.20;61.80;;;;;;5054713;28;19925;-59
2022/11/14 04:22:58;;;;;;;;;;;19.20;61.70;;;;;;5055406;28;19994;-59
2022/11/14 04:25:24;;;;;;;;;;;19.20;61.70;;;;;;5054558;28;19931;-59
2022/11/14 04:27:49;;;;;;;;;;;19.30;61.70;;;;;;5054493;28;20316;-59
2022/11/14 04:30:15;;;;;;;;;;;19.30;61.70;;;;;;5054662;28;19925;-59
2022/11/14 04:32:40;;;;;;;;;;;19.30;61.60;;;;;;5054213;28;19925;-59
2022/11/14 04:35:06;;;;;;;;;;;19.30;61.60;;;;;;5055025;28;19933;-59
2022/11/14 04:37:31;;;;;;;;;;;19.30;61.60;;;;;;5054597;28;19936;-59
2022/11/14 04:39:59;;;;;;;;;;;19.40;61.60;;;;;;5054060;28;19925;-59
2022/11/14 04:42:25;;;;;;;;;;;19.40;61.60;;;;;;5054601;28;20375;-59
2022/11/14 04:44:50;;;;;;;;;;;19.40;61.60;;;;;;5054562;28;20376;-59
2022/11/14 04:47:16;;;;;;;;;;;19.40;61.60;;;;;;5053802;28;19925;-59
2022/11/14 04:49:41;;;;;;;;;;;19.40;61.60;;;;;;5054671;28;19929;-59
2022/11/14 04:52:07;;;;;;;;;;;19.40;61.60;;;;;;5054567;28;19924;-59
2022/11/14 04:54:32;;;;;;;;;;;19.40;61.50;;;;;;5053668;28;19931;-59
2022/11/14 04:56:58;;;;;;;;;;;19.50;61.60;;;;;;5054465;28;19924;-59
2022/11/14 04:59:23;;;;;;;;;;;19.50;61.50;;;;;;5054191;28;19968;-59
2022/11/14 05:01:49;;;;;;;;;;;19.50;61.50;;;;;;5053179;28;19925;-59
2022/11/14 05:04:14;;;;;;;;;;;19.50;61.50;;;;;;5052523;28;19928;-59
2022/11/14 05:06:40;;;;;;;;;;;19.50;61.50;;;;;;5053269;28;19929;-59
2022/11/14 05:09:05;;;;;;;;;;;19.50;61.50;;;;;;5053266;28;20426;-59
2022/11/14 05:11:31;;;;;;;;;;;19.50;61.50;;;;;;5054159;28;20012;-59
2022/11/14 05:13:56;;;;;;;;;;;19.50;61.50;;;;;;5054575;28;19925;-59
2022/11/14 05:16:21;;;;;;;;;;;19.60;62.10;;;;;;5053482;28;19929;-59
2022/11/14 05:18:47;;;;;;;;;;;19.60;61.50;;;;;;5054241;28;20369;-60
2022/11/14 05:21:13;;;;;;;;;;;19.60;61.50;;;;;;5053819;28;19925;-59
2022/11/14 05:23:38;;;;;;;;;;;19.60;61.40;;;;;;5053219;28;20399;-60
2022/11/14 05:26:04;;;;;;;;;;;19.60;61.40;;;;;;5054331;28;20019;-59
2022/11/14 05:28:30;;;;;;;;;;;19.60;61.40;;;;;;5054016;28;19924;-59
2022/11/14 05:31:05;;;;;;;;;;;19.60;61.40;;;;;;5053490;28;19925;-59
2022/11/14 05:33:31;;;;;;;;;;;19.60;61.40;;;;;;5053533;28;19924;-59
2022/11/14 05:36:03;;;;;;;;;;;19.60;61.30;;;;;;5053069;28;19932;-59
2022/11/14 05:38:29;;;;;;;;;;;19.60;61.40;;;;;;5053354;28;19974;-59
2022/11/14 05:40:54;;;;;;;;;;;19.70;61.40;;;;;;5053894;28;19925;-59
2022/11/14 05:43:20;;;;;;;;;;;19.70;61.30;;;;;;5051439;28;19925;-59
2022/11/14 05:45:45;;;;;;;;;;;19.70;61.30;;;;;;5053801;28;19960;-59
2022/11/14 05:48:11;;;;;;;;;;;19.70;61.30;;;;;;5053296;28;19925;-59
2022/11/14 05:50:36;;;;;;;;;;;19.70;61.30;;;;;;5052771;28;19970;-59
2022/11/14 05:53:02;;;;;;;;;;;19.70;61.30;;;;;;5053205;28;20338;-59
2022/11/14 05:55:27;;;;;;;;;;;19.70;61.30;;;;;;5053335;28;19925;-59
2022/11/14 05:57:53;;;;;;;;;;;19.70;61.30;;;;;;5052444;28;19987;-59
2022/11/14 06:00:18;;;;;;;;;;;19.70;61.30;;;;;;5068509;28;19921;-59
2022/11/14 06:02:45;;;;;;;;;;;19.70;61.30;;;;;;5053500;28;20024;-59
2022/11/14 06:05:10;;;;;;;;;;;19.70;61.30;;;;;;5052203;28;19921;-59
2022/11/14 06:07:37;;;;;;;;;;;19.70;61.30;;;;;;5052916;28;19929;-59
2022/11/14 06:10:03;;;;;;;;;;;19.70;61.30;;;;;;5053107;28;20320;-59
2022/11/14 06:12:30;;;;;;;;;;;19.70;61.30;;;;;;5052287;28;19996;-59
2022/11/14 06:14:56;;;;;;;;;;;19.80;61.30;;;;;;5052869;28;19925;-59
2022/11/14 06:17:21;;;;;;;;;;;19.80;61.30;;;;;;5052713;28;19921;-59
2022/11/14 06:19:47;;;;;;;;;;;19.80;61.30;;;;;;5052513;28;20024;-59
2022/11/14 06:22:12;;;;;;;;;;;19.80;61.30;;;;;;5052777;28;20300;-59
2022/11/14 06:24:38;;;;;;;;;;;19.80;61.30;;;;;;5052913;28;19932;-59
2022/11/14 06:27:03;;;;;;;;;;;19.80;61.30;;;;;;5034269;28;19925;-59
2022/11/14 06:29:28;;;;;;;;;;;19.80;61.30;;;;;;5052785;28;19976;-59
2022/11/14 06:31:54;;;;;;;;;;;19.80;61.30;;;;;;5053108;28;20319;-59
2022/11/14 06:34:19;;;;;;;;;;;19.80;61.30;;;;;;5052020;28;19925;-59
2022/11/14 06:36:45;;;;;;;;;;;19.80;61.30;;;;;;5052506;28;20383;-59
2022/11/14 06:39:10;;;;;;;;;;;19.80;61.20;;;;;;5052289;28;20380;-60
2022/11/14 06:41:36;;;;;;;;;;;19.80;61.20;;;;;;5052142;28;20015;-60
2022/11/14 06:44:01;;;;;;;;;;;19.80;61.10;;;;;;5052959;28;19920;-59
2022/11/14 06:46:27;;;;;;;;;;;19.80;61.80;;;;;;5051525;28;20305;-59
2022/11/14 06:48:52;;;;;;;;;;;19.80;61.20;;;;;;5052413;28;20006;-59
2022/11/14 06:51:18;;;;;;;;;;;19.80;61.10;;;;;;5052432;28;20447;-59
2022/11/14 06:53:43;;;;;;;;;;;19.80;61.20;;;;;;5052016;28;19932;-59
2022/11/14 06:56:10;;;;;;;;;;;19.80;61.10;;;;;;5052525;28;19925;-59
2022/11/14 06:58:39;;;;;;;;;;;19.80;61.10;;;;;;5052772;28;19925;-58
2022/11/14 07:01:05;;;;;;;;;;;19.90;61.20;;;;;;5051858;28;19932;-60
2022/11/14 07:03:30;;;;;;;;;;;19.80;61.10;;;;;;5052522;28;20426;-59
2022/11/14 07:05:59;;;;;;;;;;;19.90;61.10;;;;;;5052320;28;19925;-59
2022/11/14 07:08:25;;;;;;;;;;;19.80;61.10;;;;;;5051580;28;19931;-58
2022/11/14 07:10:50;;;;;;;;;;;19.90;61.00;;;;;;5052483;28;19924;-60
2022/11/14 07:13:16;;;;;;;;;;;19.90;61.00;;;;;;5051946;28;20008;-59
2022/11/14 07:15:51;;;;;;;;;;;19.90;61.00;;;;;;5051042;28;19924;-59
2022/11/14 07:18:16;;;;;;;;;;;19.90;60.90;;;;;;5052173;28;19932;-60
2022/11/14 07:20:42;;;;;;;;;;;19.90;60.90;;;;;;5052414;28;19929;-59
2022/11/14 07:23:07;;;;;;;;;;;19.80;60.90;;;;;;5051602;28;19975;-59
2022/11/14 07:25:33;;;;;;;;;;;19.90;60.90;;;;;;5051898;28;19957;-60
2022/11/14 07:27:58;;;;;;;;;;;19.90;60.90;;;;;;5053989;28;19925;-59
2022/11/14 07:30:24;;;;;;;;;;;19.90;61.00;;;;;;5055260;28;19976;-60
2022/11/14 07:32:55;;;;;;;;;;;19.90;61.10;;;;;;5055922;28;19924;-60
2022/11/14 07:35:21;;;;;;;;;;;19.90;61.10;;;;;;5057581;28;19935;-60
2022/11/14 07:37:46;;;;;;;;;;;19.90;61.10;;;;;;5063490;28;19925;-60
2022/11/14 07:40:12;;;;;;;;;;;19.90;61.30;;;;;;5067516;28;19950;-60
2022/11/14 07:42:37;;;;;;;;;;;19.90;61.40;;;;;;5075478;28;20034;-60
2022/11/14 07:45:03;;;;;;;;;;;19.90;61.40;;;;;;5075748;28;19928;-60
2022/11/14 07:47:28;;;;;;;;;;;19.90;61.50;;;;;;5075448;28;20422;-60
2022/11/14 07:49:54;;;;;;;;;;;20.00;61.60;;;;;;5075096;28;20025;-60
2022/11/14 07:52:19;;;;;;;;;;;20.00;61.70;;;;;;5075725;28;20386;-60
2022/11/14 07:54:45;;;;;;;;;;;20.00;61.80;;;;;;5075988;28;19924;-60
2022/11/14 07:57:10;;;;;;;;;;;20.00;61.90;;;;;;5074627;28;19924;-60
2022/11/14 07:59:36;;;;;;;;;;;20.00;61.90;;;;;;5075918;28;20002;-59
2022/11/14 08:02:01;;;;;;;;;;;20.00;61.90;;;;;;5075428;28;19942;-60
2022/11/14 08:04:26;;;;;;;;;;;20.00;61.90;;;;;;5074568;28;19925;-60
2022/11/14 08:06:52;;;;;;;;;;;20.00;61.90;;;;;;5075620;28;19924;-60
2022/11/14 08:09:17;;;;;;;;;;;20.00;61.90;;;;;;5075223;28;19924;-60
2022/11/14 08:11:49;;;;;;;;;;;20.00;62.00;;;;;;5074901;28;20295;-60
2022/11/14 08:14:15;;;;;;;;;;;20.10;62.10;;;;;;5063303;28;19967;-59
2022/11/14 08:16:40;;;;;;;;;;;20.10;62.10;;;;;;5065838;28;19956;-61
2022/11/14 08:19:06;;;;;;;;;;;20.10;62.20;;;;;;5064350;28;20003;-60
2022/11/14 08:21:31;;;;;;;;;;;20.10;62.00;;;;;;5063568;28;19932;-60
2022/11/14 08:23:56;;;;;;;;;;;20.10;62.00;;;;;;5065800;28;20371;-60
2022/11/14 08:26:22;;;;;;;;;;;20.10;62.00;;;;;;5045355;28;19935;-59
2022/11/14 08:28:50;;;;;;;;;;;20.10;61.90;;;;;;5063849;28;20015;-60
2022/11/14 08:31:16;;;;;;;;;;;20.10;62.00;;;;;;5064981;28;19924;-60
2022/11/14 08:33:41;;;;;;;;;;;20.10;62.10;;;;;;5053793;28;20295;-59
2022/11/14 08:36:08;;;;;;;;;;;20.10;62.00;;;;;;5055473;28;19932;-59
2022/11/14 08:38:34;;;;;;;;;;;20.20;62.00;;;;;;5054582;28;19951;-59
2022/11/14 08:40:59;;;;;;;;;;;20.10;61.90;;;;;;5054087;28;20015;-59
2022/11/14 08:43:25;;;;;;;;;;;20.20;61.90;;;;;;5054838;28;19924;-60
2022/11/14 08:45:50;;;;;;;;;;;20.20;61.90;;;;;;5054276;28;19968;-60
2022/11/14 08:48:16;;;;;;;;;;;20.20;61.80;;;;;;5054820;28;19924;-60
2022/11/14 08:50:41;;;;;;;;;;;20.20;61.80;;;;;;5054871;28;19968;-59
2022/11/14 08:53:07;;;;;;;;;;;20.20;61.80;;;;;;5053631;28;19936;-58
2022/11/14 08:55:32;;;;;;;;;;;20.10;61.80;;;;;;5060201;28;20478;-59
2022/11/14 08:57:58;;;;;;;;;;;20.20;61.80;;;;;;5072115;28;19925;-59
2022/11/14 09:00:23;;;;;;;;;;;20.10;61.70;;;;;;5067226;28;19924;-59
2022/11/14 09:02:48;;;;;;;;;;;20.20;61.70;;;;;;5071347;28;19924;-59
2022/11/14 09:05:14;;;;;;;;;;;20.20;61.70;;;;;;5057869;28;19929;-59
2022/11/14 09:07:39;;;;;;;;;;;20.10;62.30;;;;;;5066571;28;19932;-59
2022/11/14 09:10:05;;;;;;;;;;;20.10;61.70;;;;;;5074284;28;19924;-59
2022/11/14 09:12:31;;;;;;;;;;;20.10;61.70;;;;;;5046134;28;19925;-59
2022/11/14 09:14:56;;;;;;;;;;;20.10;61.70;;;;;;5045735;28;20015;-59
2022/11/14 09:17:22;;;;;;;;;;;20.10;61.60;;;;;;5054211;28;19925;-59
2022/11/14 09:19:47;;;;;;;;;;;20.10;61.60;;;;;;5054307;28;20406;-59
2022/11/14 09:22:13;;;;;;;;;;;20.10;61.60;;;;;;5053274;28;19935;-58
2022/11/14 09:24:38;;;;;;;;;;;20.10;61.60;;;;;;5054292;28;19924;-59
2022/11/14 09:27:04;;;;;;;;;;;20.10;61.60;;;;;;5054503;28;20012;-59
2022/11/14 09:29:29;;;;;;;;;;;20.20;61.60;;;;;;5053401;28;19924;-59
2022/11/14 09:31:56;;;;;;;;;;;20.20;61.60;;;;;;5054412;28;20293;-59
2022/11/14 09:34:21;;;;;;;;;;;20.20;61.60;;;;;;5054286;28;19932;-60
2022/11/14 09:36:46;;;;;;;;;;;20.10;61.40;;;;;;5053568;28;19925;-59
2022/11/14 09:39:12;;;;;;;;;;;20.20;61.30;;;;;;5052922;28;20292;-60
2022/11/14 09:42:03;;;;;;;;;;;20.10;61.40;;;;;;5063686;28;19933;-59
2022/11/14 09:44:44;;;;;;;;;;;20.10;61.50;;;;;;5049264;28;19928;-59
2022/11/14 09:47:11;;;;;;;;;;;20.20;61.70;;;;;;5072072;28;19954;-59
2022/11/14 09:49:37;;;;;;;;;;;20.20;61.60;;;;;;5048989;28;20046;-59
2022/11/14 09:52:18;;;;;;;;;;;20.20;61.80;;;;;;5063653;28;19932;-59
2022/11/14 09:55:03;;;;;;;;;;;20.20;61.80;;;;;;5053882;28;19932;-59
2022/11/14 09:57:28;;;;;;;;;;;20.10;61.80;;;;;;5035015;28;19967;-59
2022/11/14 09:59:54;;;;;;;;;;;20.20;61.80;;;;;;5053880;28;20360;-59
2022/11/14 10:02:30;;;;;;;;;;;20.20;61.80;;;;;;5035389;28;20030;-59
2022/11/14 10:04:55;;;;;;;;;;;20.20;61.80;;;;;;5034973;28;20399;-59
2022/11/14 10:07:21;;;;;;;;;;;20.20;61.90;;;;;;5053623;28;19932;-59
2022/11/14 10:09:58;;;;;;;;;;;20.20;61.90;;;;;;5053618;28;20400;-59
2022/11/14 10:12:43;;;;;;;;;;;20.20;61.80;;;;;;5031802;28;19940;-59
2022/11/14 10:15:21;;;;;;;;;;;20.20;61.90;;;;;;5080900;28;19924;-59
2022/11/14 10:17:50;;;;;;;;;;;20.20;62.00;;;;;;5054340;28;19925;-59
2022/11/14 10:20:20;;;;;;;;;;;20.20;61.90;;;;;;5060929;28;19935;-59
2022/11/14 10:23:04;;;;;;;;;;;20.20;62.00;;;;;;5034662;28;19921;-59
2022/11/14 10:25:48;;;;;;;;;;;20.20;61.90;;;;;;5051209;28;19925;-59
2022/11/14 10:28:18;;;;;;;;;;;20.20;62.00;;;;;;5052495;28;19924;-59
2022/11/14 10:30:59;;;;;;;;;;;20.20;62.00;;;;;;5034138;28;21381;-59
2022/11/14 10:33:31;;;;;;;;;;;20.20;62.00;;;;;;5034239;28;19924;-59
2022/11/14 10:35:59;;;;;;;;;;;20.20;62.10;;;;;;5052674;28;19925;-59
2022/11/14 10:38:41;;;;;;;;;;;20.10;62.00;;;;;;5051349;28;19994;-59
2022/11/14 10:41:07;;;;;;;;;;;20.20;62.10;;;;;;5052907;28;19932;-59
2022/11/14 10:43:36;;;;;;;;;;;20.20;62.10;;;;;;5034757;28;20277;-58
2022/11/14 10:46:21;;;;;;;;;;;20.20;62.00;;;;;;5034213;28;19931;-59
2022/11/14 10:48:47;;;;;;;;;;;20.20;62.10;;;;;;5052499;28;19928;-59
2022/11/14 10:51:25;;;;;;;;;;;20.10;62.00;;;;;;5034398;28;19925;-59
2022/11/14 10:53:50;;;;;;;;;;;20.10;62.00;;;;;;5051981;28;19924;-59
2022/11/14 10:56:16;;;;;;;;;;;20.10;62.10;;;;;;5052272;28;19925;-59
2022/11/14 10:58:41;;;;;;;;;;;20.10;62.00;;;;;;5052674;28;20015;-59
2022/11/14 11:01:25;;;;;;;;;;;20.10;62.10;;;;;;5051668;28;19924;-59
2022/11/14 11:03:51;;;;;;;;;;;20.10;62.00;;;;;;5052112;28;19925;-59
2022/11/14 11:06:26;;;;;;;;;;;20.10;62.10;;;;;;5052070;28;19932;-59
2022/11/14 11:11:37;;;;;;;;;;;20.10;62.00;;;;;;5054493;28;20371;-59
2022/11/14 11:14:02;;;;;;;;;;;20.10;62.40;;;;;;5061286;28;20057;-59
2022/11/14 11:16:28;;;;;;;;;;;20.10;62.20;;;;;;5063145;28;19968;-59
2022/11/14 11:19:03;;;;;;;;;;;20.10;62.80;;;;;;5061350;28;20007;-59
2022/11/14 11:21:28;;;;;;;;;;;20.10;62.20;;;;;;5072033;28;20141;-59
2022/11/14 11:23:54;;;;;;;;;;;20.10;62.30;;;;;;5034786;28;20000;-59
2022/11/14 11:26:24;;;;;;;;;;;20.10;62.30;;;;;;5052026;28;19925;-60
2022/11/14 11:29:02;;;;;;;;;;;20.10;62.40;;;;;;5051985;28;20395;-59
2022/11/14 11:31:28;;;;;;;;;;;20.10;62.40;;;;;;5052238;28;19929;-59
2022/11/14 11:33:53;;;;;;;;;;;20.00;62.40;;;;;;5034724;28;20011;-59
2022/11/14 11:36:21;;;;;;;;;;;20.00;62.50;;;;;;5033885;28;19983;-60
2022/11/14 11:38:46;;;;;;;;;;;20.00;62.50;;;;;;5034903;28;19925;-59
2022/11/14 11:41:12;;;;;;;;;;;20.00;62.50;;;;;;5052230;28;19979;-60
2022/11/14 11:43:46;;;;;;;;;;;20.00;62.50;;;;;;5058710;28;20348;-59
2022/11/14 11:46:14;;;;;;;;;;;20.00;62.60;;;;;;5059228;28;19929;-60
2022/11/14 11:48:39;;;;;;;;;;;20.00;62.60;;;;;;5068587;28;19925;-60
2022/11/14 11:51:09;;;;;;;;;;;20.00;62.60;;;;;;5052222;28;19931;-59
2022/11/14 11:53:41;;;;;;;;;;;20.00;62.70;;;;;;5068145;28;19921;-59
2022/11/14 11:56:26;;;;;;;;;;;20.00;62.70;;;;;;5051607;28;19929;-60
2022/11/14 11:58:57;;;;;;;;;;;20.00;62.60;;;;;;5052698;28;19943;-60
2022/11/14 12:01:22;;;;;;;;;;;20.00;62.70;;;;;;5047126;28;20359;-59
2022/11/14 12:03:48;;;;;;;;;;;20.00;62.60;;;;;;5035283;28;20411;-59
2022/11/14 12:06:15;;;;;;;;;;;20.00;62.60;;;;;;5066736;28;19935;-59
2022/11/14 12:08:59;;;;;;;;;;;20.00;62.70;;;;;;5036167;28;20004;-60
2022/11/14 12:11:25;;;;;;;;;;;20.00;62.80;;;;;;5049981;28;19925;-59
2022/11/14 12:13:57;;;;;;;;;;;20.00;62.80;;;;;;5052663;28;19974;-60
2022/11/14 12:16:26;;;;;;;;;;;19.90;62.80;;;;;;5037029;28;19925;-59
2022/11/14 12:18:52;;;;;;;;;;;20.00;63.00;;;;;;5036683;28;19921;-59
2022/11/14 12:21:30;;;;;;;;;;;20.00;63.10;;;;;;5054981;28;19931;-59
2022/11/14 12:23:59;;;;;;;;;;;20.00;63.10;;;;;;5054224;28;20019;-59
2022/11/14 12:26:27;;;;;;;;;;;20.00;63.00;;;;;;5036941;28;19931;-59
2022/11/14 12:29:11;;;;;;;;;;;20.00;63.10;;;;;;5037382;28;19932;-59
2022/11/14 12:31:36;;;;;;;;;;;20.00;63.20;;;;;;5054519;28;19931;-59
2022/11/14 12:34:14;;;;;;;;;;;20.00;63.20;;;;;;5037385;28;20007;-59
2022/11/14 12:36:39;;;;;;;;;;;20.00;63.20;;;;;;5037083;28;20274;-59
2022/11/14 12:39:05;;;;;;;;;;;20.00;63.20;;;;;;5054155;28;20426;-59
2022/11/14 12:41:31;;;;;;;;;;;20.00;63.20;;;;;;5036961;28;19929;-59
2022/11/14 12:44:15;;;;;;;;;;;20.00;63.30;;;;;;5053898;28;19971;-59
2022/11/14 12:47:00;;;;;;;;;;;20.10;63.30;;;;;;5058268;28;20398;-59
2022/11/14 12:49:44;;;;;;;;;;;20.10;63.30;;;;;;5036231;28;19925;-59
2022/11/14 12:52:28;;;;;;;;;;;20.10;63.30;;;;;;5053661;28;19970;-59
2022/11/14 12:54:53;;;;;;;;;;;20.10;63.30;;;;;;5054787;28;19977;-59
2022/11/14 12:57:46;;;;;;;;;;;20.10;63.30;;;;;;5054697;28;20022;-59
2022/11/14 13:00:06;;;;;;;;;;;20.10;63.30;;;;;;5039104;28;20459;-59
2022/11/14 13:02:41;;;;;;;;;;;20.10;63.30;;;;;;5089066;28;20059;-59
2022/11/14 13:05:10;;;;;;;;;;;20.10;63.30;;;;;;5090166;28;19925;-59
2022/11/14 13:07:54;;;;;;;;;;;20.20;63.30;;;;;;5074028;28;19925;-62
2022/11/14 13:10:26;;;;;;;;;;;20.20;63.30;;;;;;5073922;28;20283;-61
2022/11/14 13:21:44;;;;;;;;;;;20.20;62.70;;;;;;5086990;28;19925;-59
2022/11/14 13:24:10;;;;;;;;;;;20.20;62.70;;;;;;5074381;28;19924;-59
2022/11/14 13:26:37;;;;;;;;;;;20.30;62.50;;;;;;5074119;28;20023;-59
2022/11/14 13:29:02;;;;;;;;;;;20.30;62.60;;;;;;5073932;28;19960;-59
2022/11/14 13:31:37;;;;;;;;;;;20.30;62.50;;;;;;5056419;28;19986;-59
2022/11/14 13:34:21;;;;;;;;;;;20.30;62.50;;;;;;5074786;28;20019;-59
2022/11/14 13:36:49;;;;;;;;;;;20.30;62.50;;;;;;5074336;28;19924;-59
2022/11/14 13:39:19;;;;;;;;;;;20.30;62.40;;;;;;5073879;28;20367;-59
2022/11/14 13:41:52;;;;;;;;;;;20.30;62.40;;;;;;5089059;28;19974;-58
2022/11/14 13:44:41;;;;;;;;;;;20.40;62.80;;;;;;5089921;28;19929;-59
2022/11/14 13:47:25;;;;;;;;;;;20.40;62.30;;;;;;5068339;28;20380;-58
2022/11/14 13:49:52;;;;;;;;;;;20.40;62.20;;;;;;5073002;28;19949;-56
2022/11/14 13:52:18;;;;;;;;;;;20.40;62.10;;;;;;5073398;28;19932;-56
2022/11/14 13:54:47;;;;;;;;;;;20.40;62.10;;;;;;5074111;28;19929;-56
2022/11/14 13:57:14;;;;;;;;;;;20.40;62.10;;;;;;5072999;28;19960;-57
2022/11/14 14:00:05;;;;;;;;;;;20.50;62.10;;;;;;5089582;28;19924;-56
2022/11/14 14:02:35;;;;;;;;;;;20.50;62.10;;;;;;5067302;28;19950;-56
2022/11/14 14:05:03;;;;;;;;;;;20.40;62.10;;;;;;5089346;28;20453;-56
2022/11/14 14:07:40;;;;;;;;;;;20.50;62.10;;;;;;5088972;28;20328;-57
2022/11/14 14:10:25;;;;;;;;;;;20.50;62.10;;;;;;5088693;28;20423;-56
2022/11/14 14:12:53;;;;;;;;;;;20.50;62.10;;;;;;5073549;28;19925;-56
2022/11/14 14:15:21;;;;;;;;;;;20.50;62.10;;;;;;5073395;28;19986;-56
2022/11/14 14:17:58;;;;;;;;;;;20.50;62.00;;;;;;5072964;28;19924;-56
2022/11/14 14:20:33;;;;;;;;;;;20.50;62.00;;;;;;5088589;28;19928;-56
2022/11/14 14:23:12;;;;;;;;;;;20.50;62.00;;;;;;5089185;28;19924;-59
2022/11/14 14:25:41;;;;;;;;;;;20.50;62.00;;;;;;5072357;28;19924;-62
2022/11/14 14:28:18;;;;;;;;;;;20.50;62.10;;;;;;5073594;28;19924;-63
2022/11/14 14:30:59;;;;;;;;;;;20.50;62.20;;;;;;5086402;28;20080;-63